createdAt,value
2018-09-11T00:01:34.308Z,22.20
2018-09-11T00:04:03.231Z,22.14
2018-09-11T00:06:32.619Z,22.14
2018-09-11T00:09:01.596Z,22.08
2018-09-11T00:11:30.597Z,22.09
2018-09-11T00:13:59.631Z,22.03
2018-09-11T00:16:29.002Z,22.05
2018-09-11T00:18:58.354Z,22.08
2018-09-11T00:21:27.599Z,22.06
2018-09-11T00:23:56.848Z,22.08
2018-09-11T00:26:26.187Z,22.01
2018-09-11T00:28:55.650Z,21.97
2018-09-11T00:31:24.719Z,21.96
2018-09-11T00:33:54.059Z,21.95
2018-09-11T00:36:23.203Z,21.97
2018-09-11T00:38:52.484Z,21.98
2018-09-11T00:41:21.631Z,21.99
2018-09-11T00:43:50.755Z,21.96
2018-09-11T00:46:20.032Z,21.96
2018-09-11T00:48:49.178Z,21.94
2018-09-11T00:51:18.475Z,21.88
2018-09-11T00:53:47.538Z,21.84
2018-09-11T00:56:16.715Z,21.82
2018-09-11T00:58:45.965Z,21.78
2018-09-11T01:01:15.247Z,21.74
2018-09-11T01:03:44.715Z,21.71
2018-09-11T01:06:14.367Z,21.69
2018-09-11T01:08:43.697Z,21.67
2018-09-11T01:11:12.929Z,21.61
2018-09-11T01:13:41.888Z,21.62
2018-09-11T01:16:11.275Z,21.54
2018-09-11T01:18:40.457Z,21.52
2018-09-11T01:21:09.742Z,21.46
2018-09-11T01:23:39.001Z,21.47
2018-09-11T01:26:07.953Z,21.44
2018-09-11T01:28:37.197Z,21.40
2018-09-11T01:31:06.548Z,21.38
2018-09-11T01:33:35.792Z,21.43
2018-09-11T01:36:04.856Z,21.42
2018-09-11T01:38:34.265Z,21.46
2018-09-11T01:41:03.595Z,21.47
2018-09-11T01:43:32.799Z,21.47
2018-09-11T01:46:02.060Z,21.43
2018-09-11T01:48:31.332Z,21.41
2018-09-11T01:51:00.624Z,21.38
2018-09-11T01:53:29.554Z,21.35
2018-09-11T01:55:58.834Z,21.28
2018-09-11T01:58:28.243Z,21.25
2018-09-11T02:00:57.327Z,21.24
2018-09-11T02:03:26.663Z,21.14
2018-09-11T02:05:56.005Z,21.04
2018-09-11T02:08:25.255Z,21.01
2018-09-11T02:10:54.611Z,20.96
2018-09-11T02:13:23.881Z,20.98
2018-09-11T02:15:53.063Z,20.98
2018-09-11T02:18:22.394Z,21.00
2018-09-11T02:20:51.872Z,20.97
2018-09-11T02:23:21.308Z,20.97
2018-09-11T02:25:50.560Z,21.07
2018-09-11T02:28:19.904Z,21.06
2018-09-11T02:30:49.260Z,21.06
2018-09-11T02:33:18.463Z,21.02
2018-09-11T02:35:47.781Z,21.06
2018-09-11T02:38:17.072Z,21.00
2018-09-11T02:40:46.248Z,20.98
2018-09-11T02:43:15.577Z,21.00
2018-09-11T02:45:44.758Z,20.92
2018-09-11T02:48:14.107Z,20.97
2018-09-11T02:50:43.330Z,20.99
2018-09-11T02:53:12.284Z,21.00
2018-09-11T02:55:41.296Z,20.96
2018-09-11T02:58:10.484Z,20.91
2018-09-11T03:00:39.495Z,20.90
2018-09-11T03:03:08.862Z,20.90
2018-09-11T03:05:38.128Z,20.83
2018-09-11T03:08:07.410Z,20.76
2018-09-11T03:10:36.429Z,20.78
2018-09-11T03:13:05.359Z,20.75
2018-09-11T03:15:34.560Z,20.73
2018-09-11T03:18:03.784Z,20.68
2018-09-11T03:20:33.143Z,20.67
2018-09-11T03:23:02.382Z,20.67
2018-09-11T03:25:31.604Z,20.64
2018-09-11T03:28:00.629Z,20.66
2018-09-11T03:30:30.237Z,20.59
2018-09-11T03:32:59.239Z,20.51
2018-09-11T03:35:28.490Z,20.42
2018-09-11T03:37:57.688Z,20.29
2018-09-11T03:40:27.160Z,20.26
2018-09-11T03:42:56.525Z,20.33
2018-09-11T03:45:25.640Z,20.35
2018-09-11T03:47:54.865Z,20.34
2018-09-11T03:50:24.342Z,20.36
2018-09-11T03:52:53.649Z,20.39
2018-09-11T03:55:22.608Z,20.39
2018-09-11T03:57:51.969Z,20.36
2018-09-11T04:00:21.167Z,20.28
2018-09-11T04:02:50.439Z,20.14
2018-09-11T04:05:19.802Z,20.11
2018-09-11T04:07:49.264Z,20.06
2018-09-11T04:10:18.712Z,20.05
2018-09-11T04:12:48.170Z,20.05
2018-09-11T04:15:17.255Z,20.05
2018-09-11T04:17:46.311Z,20.02
2018-09-11T04:20:15.655Z,20.00
2018-09-11T04:22:45.053Z,19.97
2018-09-11T04:25:14.392Z,20.01
2018-09-11T04:27:43.664Z,20.03
2018-09-11T04:30:13.046Z,20.06
2018-09-11T04:32:41.944Z,20.06
2018-09-11T04:35:11.075Z,20.08
2018-09-11T04:37:40.100Z,20.10
2018-09-11T04:40:09.540Z,20.15
2018-09-11T04:42:38.885Z,20.19
2018-09-11T04:45:08.248Z,20.27
2018-09-11T04:47:37.487Z,20.32
2018-09-11T04:50:06.777Z,20.39
2018-09-11T04:52:35.824Z,20.39
2018-09-11T04:55:04.978Z,20.36
2018-09-11T04:57:34.256Z,20.37
2018-09-11T05:00:03.410Z,20.41
2018-09-11T05:02:32.647Z,20.43
2018-09-11T05:05:01.843Z,20.51
2018-09-11T05:07:31.137Z,20.51
2018-09-11T05:10:00.301Z,20.57
2018-09-11T05:12:29.487Z,20.70
2018-09-11T05:14:58.667Z,20.78
2018-09-11T05:17:27.943Z,20.88
2018-09-11T05:19:57.056Z,20.92
2018-09-11T05:22:26.280Z,20.93
2018-09-11T05:24:55.484Z,20.99
2018-09-11T05:27:24.668Z,21.01
2018-09-11T05:29:53.815Z,21.06
2018-09-11T05:32:22.808Z,21.08
2018-09-11T05:34:52.003Z,21.12
2018-09-11T05:37:21.156Z,21.21
2018-09-11T05:39:50.351Z,21.41
2018-09-11T05:42:19.458Z,21.40
2018-09-11T05:44:48.641Z,21.36
2018-09-11T05:47:17.553Z,21.49
2018-09-11T05:49:46.580Z,21.60
2018-09-11T05:52:15.777Z,21.74
2018-09-11T05:54:44.704Z,21.89
2018-09-11T05:57:13.608Z,21.98
2018-09-11T05:59:42.867Z,21.99
2018-09-11T06:02:11.815Z,22.14
2018-09-11T06:04:40.849Z,22.32
2018-09-11T06:07:10.084Z,22.38
2018-09-11T06:09:39.248Z,22.48
2018-09-11T06:12:08.499Z,22.48
2018-09-11T06:14:37.653Z,22.45
2018-09-11T06:17:07.247Z,22.44
2018-09-11T06:19:36.464Z,22.41
2018-09-11T06:22:05.463Z,22.48
2018-09-11T06:24:34.533Z,22.57
2018-09-11T06:27:03.903Z,22.54
2018-09-11T06:29:33.089Z,22.46
2018-09-11T06:32:02.244Z,22.46
2018-09-11T06:34:31.493Z,22.44
2018-09-11T06:37:00.652Z,22.41
2018-09-11T06:39:29.885Z,22.38
2018-09-11T06:41:58.951Z,22.42
2018-09-11T06:44:28.248Z,22.37
2018-09-11T06:46:57.525Z,22.37
2018-09-11T06:49:26.485Z,22.43
2018-09-11T06:51:55.583Z,22.48
2018-09-11T06:54:24.859Z,22.51
2018-09-11T06:56:53.682Z,22.55
2018-09-11T06:59:23.056Z,22.63
2018-09-11T07:01:52.342Z,22.67
2018-09-11T07:04:21.416Z,22.72
2018-09-11T07:06:50.606Z,22.81
2018-09-11T07:09:19.834Z,22.90
2018-09-11T07:11:48.887Z,23.00
2018-09-11T07:14:18.080Z,23.14
2018-09-11T07:16:47.324Z,23.13
2018-09-11T07:19:16.409Z,23.16
2018-09-11T07:21:45.715Z,23.13
2018-09-11T07:24:14.820Z,23.22
2018-09-11T07:26:44.167Z,23.30
2018-09-11T07:29:13.644Z,23.39
2018-09-11T07:31:42.920Z,23.57
2018-09-11T07:34:12.123Z,23.64
2018-09-11T07:36:41.300Z,23.85
2018-09-11T07:39:10.435Z,24.02
2018-09-11T07:41:39.250Z,24.26
2018-09-11T07:44:08.591Z,24.60
2018-09-11T07:46:37.749Z,25.12
2018-09-11T07:49:07.187Z,25.95
2018-09-11T07:51:36.339Z,26.54
2018-09-11T07:54:05.238Z,27.12
2018-09-11T07:56:34.452Z,27.59
2018-09-11T07:59:03.700Z,28.07
2018-09-11T08:01:32.761Z,28.43
2018-09-11T08:04:02.191Z,28.57
2018-09-11T08:06:31.824Z,28.63
2018-09-11T08:09:00.814Z,28.67
2018-09-11T08:11:30.321Z,28.21
2018-09-11T08:13:59.144Z,27.25
2018-09-11T08:16:28.408Z,26.84
2018-09-11T08:18:57.601Z,26.57
2018-09-11T08:21:27.276Z,26.61
2018-09-11T08:23:56.266Z,26.83
2018-09-11T08:26:25.935Z,27.06
2018-09-11T08:28:55.673Z,27.27
2018-09-11T08:31:25.231Z,27.13
2018-09-11T08:33:54.568Z,26.95
2018-09-11T08:36:23.776Z,27.10
2018-09-11T08:38:53.092Z,27.34
2018-09-11T08:41:22.627Z,27.37
2018-09-11T08:43:51.950Z,27.07
2018-09-11T08:46:21.319Z,27.07
2018-09-11T08:48:50.291Z,27.20
2018-09-11T08:51:19.621Z,27.24
2018-09-11T08:53:49.028Z,27.49
2018-09-11T08:56:18.278Z,27.79
2018-09-11T08:58:47.440Z,27.58
2018-09-11T09:01:16.786Z,27.27
2018-09-11T09:03:46.027Z,27.15
2018-09-11T09:06:15.233Z,27.24
2018-09-11T09:08:44.403Z,27.28
2018-09-11T09:11:13.620Z,27.25
2018-09-11T09:13:42.947Z,27.37
2018-09-11T09:16:12.361Z,27.42
2018-09-11T09:18:41.698Z,27.56
2018-09-11T09:21:11.076Z,27.69
2018-09-11T09:23:41.190Z,27.92
2018-09-11T09:26:10.071Z,28.16
2018-09-11T09:28:39.580Z,28.39
2018-09-11T09:31:09.024Z,28.57
2018-09-11T09:33:38.374Z,28.94
2018-09-11T09:36:07.479Z,29.31
2018-09-11T09:38:36.831Z,29.97
2018-09-11T09:41:05.791Z,30.95
2018-09-11T09:43:34.998Z,30.76
2018-09-11T09:46:04.219Z,30.47
2018-09-11T09:48:33.580Z,30.79
2018-09-11T09:51:03.161Z,31.13
2018-09-11T09:53:32.663Z,31.47
2018-09-11T09:56:01.624Z,31.85
2018-09-11T09:58:30.860Z,32.18
2018-09-11T10:01:05.027Z,32.57
2018-09-11T10:03:34.439Z,32.92
2018-09-11T10:06:04.076Z,33.68
2018-09-11T10:08:33.038Z,34.37
2018-09-11T10:11:02.320Z,35.76
2018-09-11T10:13:31.489Z,37.20
2018-09-11T10:16:00.736Z,37.71
2018-09-11T10:18:29.947Z,36.45
2018-09-11T10:20:59.191Z,36.42
2018-09-11T10:23:28.371Z,37.82
2018-09-11T10:25:57.620Z,38.75
2018-09-11T10:28:27.082Z,38.85
2018-09-11T10:30:56.275Z,37.91
2018-09-11T10:33:25.674Z,36.16
2018-09-11T10:35:54.993Z,34.69
2018-09-11T10:38:24.200Z,34.06
2018-09-11T10:40:53.342Z,35.66
2018-09-11T10:43:22.744Z,37.91
2018-09-11T10:45:52.060Z,39.59
2018-09-11T10:48:21.329Z,40.81
2018-09-11T10:50:50.711Z,40.38
2018-09-11T10:53:19.764Z,41.39
2018-09-11T10:55:49.175Z,40.17
2018-09-11T10:58:18.148Z,38.04
2018-09-11T11:00:47.488Z,37.25
2018-09-11T11:03:16.923Z,38.68
2018-09-11T11:05:46.067Z,40.10
2018-09-11T11:08:15.112Z,41.30
2018-09-11T11:10:44.551Z,43.15
2018-09-11T11:13:13.878Z,44.00
2018-09-11T11:15:43.214Z,42.15
2018-09-11T11:18:12.569Z,39.89
2018-09-11T11:20:41.768Z,37.86
2018-09-11T11:23:11.068Z,36.20
2018-09-11T11:25:40.298Z,35.41
2018-09-11T11:28:09.637Z,37.06
2018-09-11T11:30:38.950Z,39.14
2018-09-11T11:33:07.957Z,41.07
2018-09-11T11:35:37.247Z,42.30
2018-09-11T11:38:06.709Z,43.24
2018-09-11T11:40:35.989Z,44.19
2018-09-11T11:43:05.361Z,45.34
2018-09-11T11:45:34.567Z,45.00
2018-09-11T11:48:03.841Z,44.92
2018-09-11T11:50:33.247Z,45.15
2018-09-11T11:53:02.513Z,45.67
2018-09-11T11:55:32.116Z,46.36
2018-09-11T11:58:01.421Z,46.92
2018-09-11T12:00:30.614Z,47.35
2018-09-11T12:02:59.877Z,45.70
2018-09-11T12:05:29.211Z,43.23
2018-09-11T12:07:58.443Z,40.78
2018-09-11T12:10:27.740Z,38.81
2018-09-11T12:12:56.732Z,39.25
2018-09-11T12:15:25.935Z,40.89
2018-09-11T12:17:55.388Z,42.57
2018-09-11T12:20:24.688Z,43.58
2018-09-11T12:22:54.099Z,42.98
2018-09-11T12:25:23.413Z,41.02
2018-09-11T12:27:52.750Z,39.19
2018-09-11T12:30:21.787Z,37.64
2018-09-11T12:32:51.140Z,36.28
2018-09-11T12:35:20.323Z,35.23
2018-09-11T12:37:49.781Z,35.30
2018-09-11T12:40:19.068Z,37.16
2018-09-11T12:42:48.349Z,39.34
2018-09-11T12:45:17.460Z,41.04
2018-09-11T12:47:47.066Z,41.90
2018-09-11T12:50:15.966Z,40.73
2018-09-11T12:52:45.374Z,39.06
2018-09-11T12:55:14.275Z,37.54
2018-09-11T12:57:43.712Z,36.11
2018-09-11T13:00:13.062Z,34.90
2018-09-11T13:02:42.167Z,33.87
2018-09-11T13:05:11.255Z,33.07
2018-09-11T13:07:40.640Z,32.46
2018-09-11T13:10:09.750Z,32.22
2018-09-11T13:12:38.761Z,33.43
2018-09-11T13:15:08.007Z,34.12
2018-09-11T13:17:37.361Z,33.91
2018-09-11T13:20:06.630Z,33.12
2018-09-11T13:22:36.133Z,32.44
2018-09-11T13:25:05.107Z,31.84
2018-09-11T13:27:34.543Z,31.43
2018-09-11T13:30:03.958Z,31.16
2018-09-11T13:32:33.329Z,30.95
2018-09-11T13:35:02.335Z,30.61
2018-09-11T13:37:31.612Z,30.47
2018-09-11T13:40:00.724Z,30.27
2018-09-11T13:42:30.031Z,30.00
2018-09-11T13:44:59.250Z,29.79
2018-09-11T13:47:28.440Z,29.58
2018-09-11T13:49:57.356Z,29.41
2018-09-11T13:52:26.531Z,29.31
2018-09-11T13:54:55.700Z,29.23
2018-09-11T13:57:24.956Z,29.12
2018-09-11T13:59:54.261Z,29.04
2018-09-11T14:02:23.852Z,28.97
2018-09-11T14:04:52.974Z,28.97
2018-09-11T14:07:22.468Z,29.05
2018-09-11T14:09:51.616Z,29.13
2018-09-11T14:12:20.702Z,29.13
2018-09-11T14:14:49.749Z,29.28
2018-09-11T14:17:18.844Z,29.31
2018-09-11T14:19:48.075Z,29.38
2018-09-11T14:22:18.386Z,29.42
2018-09-11T14:24:47.516Z,29.46
2018-09-11T14:27:16.629Z,29.54
2018-09-11T14:29:46.039Z,29.56
2018-09-11T14:32:15.052Z,29.67
2018-09-11T14:34:44.148Z,29.72
2018-09-11T14:37:13.469Z,29.62
2018-09-11T14:39:42.895Z,29.65
2018-09-11T14:42:12.376Z,29.53
2018-09-11T14:44:41.516Z,29.43
2018-09-11T14:47:10.860Z,29.28
2018-09-11T14:49:40.324Z,29.15
2018-09-11T14:52:09.666Z,28.98
2018-09-11T14:54:38.721Z,28.85
2018-09-11T14:57:08.119Z,28.76
2018-09-11T14:59:37.404Z,28.73
2018-09-11T15:02:06.414Z,28.60
2018-09-11T15:04:35.603Z,28.58
2018-09-11T15:07:04.807Z,28.52
2018-09-11T15:09:34.055Z,28.49
2018-09-11T15:12:03.345Z,28.40
2018-09-11T15:14:32.505Z,28.33
2018-09-11T15:17:01.750Z,28.23
2018-09-11T15:19:31.357Z,28.12
2018-09-11T15:22:00.564Z,27.99
2018-09-11T15:24:29.662Z,27.88
2018-09-11T15:26:59.031Z,27.77
2018-09-11T15:29:28.258Z,27.68
2018-09-11T15:31:57.642Z,27.63
2018-09-11T15:34:26.884Z,27.55
2018-09-11T15:36:56.367Z,27.55
2018-09-11T15:39:25.318Z,27.49
2018-09-11T15:41:54.734Z,27.54
2018-09-11T15:44:23.640Z,27.52
2018-09-11T15:46:53.064Z,27.52
2018-09-11T15:49:22.376Z,27.59
2018-09-11T15:51:51.364Z,27.54
2018-09-11T15:54:20.360Z,27.53
2018-09-11T15:56:49.709Z,27.53
2018-09-11T15:59:19.174Z,27.50
2018-09-11T16:01:48.424Z,27.49
2018-09-11T16:04:17.822Z,27.45
2018-09-11T16:06:47.124Z,27.40
2018-09-11T16:09:16.404Z,27.30
2018-09-11T16:11:45.351Z,27.19
2018-09-11T16:14:14.271Z,27.12
2018-09-11T16:16:43.540Z,27.07
2018-09-11T16:19:12.660Z,26.96
2018-09-11T16:21:41.952Z,26.84
2018-09-11T16:24:11.281Z,26.88
2018-09-11T16:26:40.529Z,26.73
2018-09-11T16:29:09.833Z,26.65
2018-09-11T16:31:39.162Z,26.51
2018-09-11T16:34:08.411Z,26.50
2018-09-11T16:36:37.647Z,26.56
2018-09-11T16:39:09.566Z,26.37
2018-09-11T16:41:39.287Z,26.16
2018-09-11T16:44:08.487Z,25.96
2018-09-11T16:46:38.043Z,25.81
2018-09-11T16:49:07.867Z,25.62
2018-09-11T16:51:37.482Z,25.49
2018-09-11T16:54:06.911Z,25.35
2018-09-11T16:56:36.180Z,25.27
2018-09-11T16:59:05.346Z,25.19
2018-09-11T17:01:34.295Z,25.09
2018-09-11T17:04:03.299Z,25.05
2018-09-11T17:06:32.487Z,24.98
2018-09-11T17:09:01.737Z,24.97
2018-09-11T17:11:30.996Z,24.92
2018-09-11T17:14:00.175Z,24.84
2018-09-11T17:16:29.065Z,24.77
2018-09-11T17:18:58.329Z,24.66
2018-09-11T17:21:27.560Z,24.62
2018-09-11T17:23:56.915Z,24.51
2018-09-11T17:26:26.063Z,24.37
2018-09-11T17:28:55.517Z,24.29
2018-09-11T17:31:24.916Z,24.27
2018-09-11T17:33:54.171Z,24.28
2018-09-11T17:36:23.484Z,24.23
2018-09-11T17:38:52.419Z,24.16
2018-09-11T17:41:21.343Z,24.17
2018-09-11T17:43:50.468Z,24.30
2018-09-11T17:46:20.584Z,24.32
2018-09-11T17:48:49.874Z,24.26
2018-09-11T17:51:19.276Z,24.19
2018-09-11T17:53:48.661Z,24.14
2018-09-11T17:56:17.768Z,24.22
2018-09-11T17:58:48.256Z,24.28
2018-09-11T18:01:17.589Z,24.24
2018-09-11T18:03:46.629Z,24.18
2018-09-11T18:06:15.863Z,24.14
2018-09-11T18:08:45.090Z,24.12
2018-09-11T18:11:15.297Z,24.03
2018-09-11T18:13:44.853Z,23.97
2018-09-11T18:16:16.031Z,23.94
2018-09-11T18:18:46.181Z,23.96
2018-09-11T18:21:17.387Z,23.98
2018-09-11T18:23:48.056Z,24.03
2018-09-11T18:26:17.488Z,24.05
2018-09-11T18:28:47.024Z,24.00
2018-09-11T18:31:18.639Z,24.02
2018-09-11T18:33:48.210Z,24.09
2018-09-11T18:36:19.082Z,24.08
2018-09-11T18:38:49.636Z,24.11
2018-09-11T18:41:20.376Z,24.11
2018-09-11T18:43:50.470Z,24.13
2018-09-11T18:46:20.138Z,24.05
2018-09-11T18:48:50.241Z,24.12
2018-09-11T18:51:19.742Z,24.02
2018-09-11T18:53:49.992Z,24.11
2018-09-11T18:56:20.315Z,24.11
2018-09-11T18:58:50.523Z,24.07
2018-09-11T19:01:20.778Z,24.03
2018-09-11T19:03:51.704Z,24.12
2018-09-11T19:06:24.278Z,24.16
2018-09-11T19:08:53.692Z,24.19
2018-09-11T19:11:23.640Z,24.10
2018-09-11T19:13:53.255Z,24.03
2018-09-11T19:16:22.367Z,24.06
2018-09-11T19:18:51.371Z,23.99
2018-09-11T19:21:20.512Z,23.90
2018-09-11T19:23:49.777Z,23.83
2018-09-11T19:26:19.545Z,23.72
2018-09-11T19:28:48.876Z,23.66
2018-09-11T19:31:18.063Z,23.59
2018-09-11T19:33:47.091Z,23.56
2018-09-11T19:36:17.878Z,23.53
2018-09-11T19:38:47.181Z,23.54
2018-09-11T19:41:16.108Z,23.53
2018-09-11T19:43:45.356Z,23.61
2018-09-11T19:46:14.813Z,23.65
2018-09-11T19:48:44.152Z,23.66
2018-09-11T19:51:13.509Z,23.67
2018-09-11T19:53:42.717Z,23.69
2018-09-11T19:56:12.099Z,23.68
2018-09-11T19:58:41.429Z,23.80
2018-09-11T20:01:10.470Z,23.67
2018-09-11T20:03:39.459Z,23.61
2018-09-11T20:06:09.599Z,23.64
2018-09-11T20:08:38.705Z,23.53
2018-09-11T20:11:08.071Z,23.53
2018-09-11T20:13:37.259Z,23.49
2018-09-11T20:16:06.795Z,23.43
2018-09-11T20:18:36.085Z,23.48
2018-09-11T20:21:05.310Z,23.37
2018-09-11T20:23:34.430Z,23.29
2018-09-11T20:26:03.600Z,23.21
2018-09-11T20:28:32.903Z,23.16
2018-09-11T20:31:02.282Z,23.16
2018-09-11T20:33:31.569Z,23.07
2018-09-11T20:36:00.756Z,22.91
2018-09-11T20:38:29.921Z,22.80
2018-09-11T20:40:58.959Z,22.79
2018-09-11T20:43:28.151Z,22.81
2018-09-11T20:45:57.364Z,22.75
2018-09-11T20:48:26.611Z,22.74
2018-09-11T20:50:55.927Z,22.78
2018-09-11T20:53:25.283Z,22.73
2018-09-11T20:55:54.720Z,22.71
2018-09-11T20:58:24.002Z,22.73
2018-09-11T21:00:53.499Z,22.76
2018-09-11T21:03:22.589Z,22.76
2018-09-11T21:05:51.915Z,22.82
2018-09-11T21:08:21.154Z,22.86
2018-09-11T21:10:50.075Z,22.86
2018-09-11T21:13:19.456Z,22.91
2018-09-11T21:15:48.742Z,22.98
2018-09-11T21:18:18.053Z,23.02
2018-09-11T21:20:47.404Z,23.08
2018-09-11T21:23:16.362Z,23.08
2018-09-11T21:25:45.593Z,23.15
2018-09-11T21:28:14.994Z,23.13
2018-09-11T21:30:44.168Z,23.10
2018-09-11T21:33:13.497Z,23.03
2018-09-11T21:35:42.806Z,23.08
2018-09-11T21:38:12.088Z,23.06
2018-09-11T21:40:41.412Z,23.00
2018-09-11T21:43:10.473Z,23.02
2018-09-11T21:45:39.832Z,22.99
2018-09-11T21:48:09.209Z,23.04
2018-09-11T21:50:38.547Z,23.03
2018-09-11T21:53:07.892Z,23.02
2018-09-11T21:55:37.061Z,23.02
2018-09-11T21:58:06.418Z,23.02
2018-09-11T22:00:39.612Z,22.97
2018-09-11T22:03:08.987Z,23.00
2018-09-11T22:05:38.294Z,22.99
2018-09-11T22:08:07.601Z,22.99
2018-09-11T22:10:36.932Z,22.98
2018-09-11T22:13:06.015Z,22.96
2018-09-11T22:15:35.303Z,22.93
2018-09-11T22:18:04.528Z,22.96
2018-09-11T22:20:33.562Z,22.95
2018-09-11T22:23:02.799Z,22.94
2018-09-11T22:25:32.187Z,22.92
2018-09-11T22:28:01.556Z,22.86
2018-09-11T22:30:30.947Z,22.81
2018-09-11T22:33:00.107Z,22.73
2018-09-11T22:35:29.231Z,22.70
2018-09-11T22:37:58.316Z,22.71
2018-09-11T22:40:27.686Z,22.64
2018-09-11T22:42:56.937Z,22.59
2018-09-11T22:45:26.336Z,22.55
2018-09-11T22:47:55.524Z,22.50
2018-09-11T22:50:24.491Z,22.51
2018-09-11T22:52:53.669Z,22.42
2018-09-11T22:55:22.919Z,22.44
2018-09-11T22:57:52.155Z,22.41
2018-09-11T23:00:21.528Z,22.43
2018-09-11T23:02:50.912Z,22.47
2018-09-11T23:05:20.172Z,22.50
2018-09-11T23:07:49.355Z,22.47
2018-09-11T23:10:18.312Z,22.54
2018-09-11T23:12:47.565Z,22.53
2018-09-11T23:15:16.848Z,22.55
2018-09-11T23:17:46.185Z,22.47
2018-09-11T23:20:15.343Z,22.43
2018-09-11T23:22:44.548Z,22.45
2018-09-11T23:25:14.054Z,22.47
2018-09-11T23:27:42.987Z,22.55
2018-09-11T23:30:12.124Z,22.52
2018-09-11T23:32:41.360Z,22.52
2018-09-11T23:35:10.725Z,22.48
2018-09-11T23:37:40.079Z,22.38
2018-09-11T23:40:09.471Z,22.35
2018-09-11T23:42:38.688Z,22.28
2018-09-11T23:45:07.636Z,22.28
2018-09-11T23:47:36.608Z,22.25
2018-09-11T23:50:05.693Z,22.19
2018-09-11T23:52:34.960Z,22.14
2018-09-11T23:55:04.220Z,22.18
2018-09-11T23:57:33.385Z,22.15
